Aérodrome :
LOGIN :

S'inscrire | Disclaimer

   EN    FR    IT 

 










Légende :    VFR   VFR Marginal   IFR   IFR Intensif   IFR Très Intensif
Visi : 
Plafond : 
>= 8 km
>= 3000ft
5 à 8 km
1000 à 3000 ft
1500m à 5 km
500 à 1000 ft
800 à 1500m
200 à 500 ft
< 800m
< 200 ft
Symboles :   Orages  Brouillard  Fortes neiges  Fortes précipitations  Vent > 20 kt
SIGMETs :   Divers  Orages  Givrage  Turbulence  Onde Orograph.  Cendres Volcan.







- Altitude de l'aérodrome : 157 ft
- Code IATA : SXF


EDDB - Berlin Schönefeld

DERNIER METAR :
  • 202320Z 27005KT 9999 FEW035 08/05 Q1028 NOSIG

METARs EXPIRÉS :
  • 202250Z 26003KT CAVOK 08/05 Q1028 NOSIG
  • 202220Z 26005KT 9999 SCT044 09/05 Q1028 NOSIG
  • 202150Z 27004KT 9999 FEW031 BKN048 09/04 Q1028 NOSIG
  • 202120Z 27004KT CAVOK 08/04 Q1028 NOSIG
  • 202050Z 26005KT CAVOK 09/04 Q1028 NOSIG

TAF TAF EDDB
Valide du 21 à 00h jusqu'au 22 à 00h UTC


202300Z 2100/2124 26004KT CAVOK
TEMPO 2102/2109 3500 BR
PROB30
TEMPO 2102/2108 0300 FG BKN001
Pas de NOTAMs connus pour ce terrain.



MET'MAP, la Météo Aéronautique d'un coup d'oeil ! - Copyright ORBIFLY Décembre 2007 - Disclaimer

ORBIFLY MET'MAP TEAM :

Programmation & Développement : Alexandra Zaïnal
Conception & Développement : Baudouin d'Aumeries
Co-Programmation & Développement : Marc-Olivier Méhu
Soutien technique & logistique : Manuel Goepfert

Contact : metmap@orbifly.com




SOURCES & CREDITS :

   NOAA